createdAt,value
2022-10-17T00:01:13.512Z,101301.80
2022-10-17T00:03:42.029Z,101301.83
2022-10-17T00:06:14.319Z,101301.60
2022-10-17T00:08:44.340Z,101301.98
2022-10-17T00:11:22.978Z,101305.75
2022-10-17T00:13:55.837Z,101308.94
2022-10-17T00:16:28.620Z,101308.33
2022-10-17T00:18:57.619Z,101306.68
2022-10-17T00:21:26.805Z,101307.55
2022-10-17T00:23:55.877Z,101309.16
2022-10-17T00:26:24.258Z,101304.85
2022-10-17T00:28:53.477Z,101311.20
2022-10-17T00:31:24.523Z,101309.27
2022-10-17T00:33:53.205Z,101312.91
2022-10-17T00:36:25.427Z,101310.79
2022-10-17T00:38:58.241Z,101316.73
2022-10-17T00:41:33.516Z,101313.55
2022-10-17T00:44:03.205Z,101306.55
2022-10-17T00:46:37.104Z,101304.11
2022-10-17T00:49:10.098Z,101303.20
2022-10-17T00:51:46.026Z,101301.35
2022-10-17T00:54:17.723Z,101305.38
2022-10-17T00:56:48.131Z,101308.09
2022-10-17T00:59:19.470Z,101302.66
2022-10-17T01:02:05.572Z,101303.84
2022-10-17T01:04:33.850Z,101302.36
2022-10-17T01:07:02.194Z,101302.13
2022-10-17T01:09:30.986Z,101305.63
2022-10-17T01:12:37.594Z,101307.09
2022-10-17T01:15:28.022Z,101305.91
2022-10-17T01:18:18.088Z,101301.30
2022-10-17T01:21:15.959Z,101298.45
2022-10-17T01:24:25.699Z,101301.77
2022-10-17T01:27:10.675Z,101303.48
2022-10-17T01:30:15.712Z,101300.60
2022-10-17T01:32:48.280Z,101300.89
2022-10-17T01:35:37.542Z,101291.02
2022-10-17T01:38:14.421Z,101291.42
2022-10-17T01:41:00.362Z,101292.03
2022-10-17T01:43:46.877Z,101293.27
2022-10-17T01:46:32.080Z,101294.70
2022-10-17T01:49:02.963Z,101296.75
2022-10-17T01:51:46.254Z,101294.50
2022-10-17T01:54:24.629Z,101294.70
2022-10-17T01:57:00.613Z,101285.27
2022-10-17T01:59:47.534Z,101298.71
2022-10-17T02:02:19.343Z,101305.44
2022-10-17T02:04:51.195Z,101309.03
2022-10-17T02:07:19.645Z,101308.40
2022-10-17T02:09:48.022Z,101309.66
2022-10-17T02:12:30.638Z,101316.23
2022-10-17T02:15:17.037Z,101319.55
2022-10-17T02:17:54.225Z,101317.70
2022-10-17T02:20:36.438Z,101314.19
2022-10-17T02:23:45.103Z,101324.17
2022-10-17T02:27:02.665Z,101326.48
2022-10-17T02:29:45.168Z,101326.90
2022-10-17T02:32:26.969Z,101329.73
2022-10-17T02:34:59.133Z,101324.20
2022-10-17T02:37:31.378Z,101329.83
2022-10-17T02:40:02.360Z,101332.77
2022-10-17T02:42:32.375Z,101334.30
2022-10-17T02:45:02.975Z,101337.49
2022-10-17T02:47:50.213Z,101336.79
2022-10-17T02:50:23.565Z,101333.86
2022-10-17T02:53:06.114Z,101329.39
2022-10-17T02:55:43.917Z,101337.58
2022-10-17T02:58:20.019Z,101338.71
2022-10-17T03:00:50.829Z,101334.88
2022-10-17T03:03:29.017Z,101328.45
2022-10-17T03:06:01.310Z,101336.80
2022-10-17T03:08:29.703Z,101336.25
2022-10-17T03:10:59.785Z,101344.02
2022-10-17T03:13:30.341Z,101348.70
2022-10-17T03:15:58.724Z,101348.72
2022-10-17T03:18:27.069Z,101344.31
2022-10-17T03:20:58.932Z,101344.58
2022-10-17T03:23:27.323Z,101351.80
2022-10-17T03:25:55.792Z,101352.09
2022-10-17T03:28:24.496Z,101355.52
2022-10-17T03:30:52.852Z,101361.46
2022-10-17T03:33:21.129Z,101364.14
2022-10-17T03:38:25.363Z,101361.75
2022-10-17T03:40:56.909Z,101362.39
2022-10-17T03:43:25.408Z,101362.38
2022-10-17T03:45:54.090Z,101360.91
2022-10-17T03:48:22.457Z,101371.63
2022-10-17T03:50:50.910Z,101374.43
2022-10-17T03:53:19.637Z,101372.89
2022-10-17T03:55:48.150Z,101369.02
2022-10-17T03:58:16.402Z,101360.83
2022-10-17T04:00:46.153Z,101374.67
2022-10-17T04:03:17.216Z,101374.80
2022-10-17T04:05:46.016Z,101373.42
2022-10-17T04:08:14.271Z,101374.16
2022-10-17T04:11:25.048Z,101372.39
2022-10-17T04:13:56.949Z,101373.80
2022-10-17T04:16:27.333Z,101371.09
2022-10-17T04:19:00.588Z,101368.77
2022-10-17T04:21:31.844Z,101360.58
2022-10-17T04:24:04.281Z,101370.19
2022-10-17T04:27:26.123Z,101368.72
2022-10-17T04:29:55.152Z,101366.36
2022-10-17T04:32:26.240Z,101367.55
2022-10-17T04:35:15.824Z,101370.16
2022-10-17T04:37:47.888Z,101375.30
2022-10-17T04:40:21.307Z,101378.68
2022-10-17T04:42:50.047Z,101378.90
2022-10-17T04:45:20.799Z,101378.51
2022-10-17T04:47:50.329Z,101378.07
2022-10-17T04:50:20.967Z,101383.41
2022-10-17T04:53:05.885Z,101386.35
2022-10-17T04:55:38.855Z,101394.09
2022-10-17T04:58:07.330Z,101392.91
2022-10-17T05:00:36.269Z,101398.59
2022-10-17T05:03:15.474Z,101401.15
2022-10-17T05:05:44.136Z,101402.48
2022-10-17T05:08:13.042Z,101403.61
2022-10-17T05:10:44.764Z,101409.39
2022-10-17T05:13:13.441Z,101408.84
2022-10-17T05:15:41.951Z,101414.16
2022-10-17T05:18:10.347Z,101417.77
2022-10-17T05:20:39.448Z,101416.80
2022-10-17T05:23:08.312Z,101418.36
2022-10-17T05:25:39.502Z,101422.63
2022-10-17T05:28:07.847Z,101407.98
2022-10-17T05:30:37.774Z,101422.10
2022-10-17T05:33:07.550Z,101424.36
2022-10-17T05:35:36.327Z,101423.96
2022-10-17T05:38:04.801Z,101422.27
2022-10-17T05:40:34.593Z,101421.94
2022-10-17T05:43:04.076Z,101426.91
2022-10-17T05:45:32.670Z,101429.21
2022-10-17T05:48:01.460Z,101430.84
2022-10-17T05:50:30.131Z,101431.77
2022-10-17T05:53:05.925Z,101426.20
2022-10-17T05:55:39.190Z,101430.09
2022-10-17T05:58:11.739Z,101436.49
2022-10-17T06:03:20.245Z,101434.83
2022-10-17T06:05:48.622Z,101441.39
2022-10-17T06:08:17.228Z,101434.38
2022-10-17T06:10:51.337Z,101441.08
2022-10-17T06:13:19.744Z,101447.99
2022-10-17T06:15:51.516Z,101452.70
2022-10-17T06:18:21.558Z,101454.65
2022-10-17T06:20:50.300Z,101454.63
2022-10-17T06:23:20.315Z,101459.86
2022-10-17T06:26:01.003Z,101457.63
2022-10-17T06:28:31.067Z,101460.00
2022-10-17T06:30:59.516Z,101466.13
2022-10-17T06:33:28.385Z,101463.84
2022-10-17T06:35:57.689Z,101462.06
2022-10-17T06:38:26.869Z,101476.33
2022-10-17T06:41:10.806Z,101463.49
2022-10-17T06:43:40.449Z,101479.20
2022-10-17T06:46:55.261Z,101486.67
2022-10-17T06:49:29.937Z,101487.14
2022-10-17T06:52:25.631Z,101491.81
2022-10-17T06:55:15.790Z,101489.08
2022-10-17T06:58:07.584Z,101492.77
2022-10-17T07:00:45.747Z,101492.15
2022-10-17T07:03:14.492Z,101495.77
2022-10-17T07:05:43.489Z,101490.58
2022-10-17T07:08:11.773Z,101495.46
2022-10-17T07:11:01.489Z,101498.34
2022-10-17T07:13:29.897Z,101501.48
2022-10-17T07:16:01.979Z,101497.39
2022-10-17T07:18:31.815Z,101502.61
2022-10-17T07:21:00.220Z,101499.38
2022-10-17T07:23:28.939Z,101504.41
2022-10-17T07:26:07.692Z,101495.70
2022-10-17T07:28:40.244Z,101505.77
2022-10-17T07:31:23.459Z,101507.31
2022-10-17T07:33:52.032Z,101503.88
2022-10-17T07:36:20.308Z,101508.63
2022-10-17T07:38:48.739Z,101508.83
2022-10-17T07:41:21.754Z,101490.95
2022-10-17T07:43:50.940Z,101505.46
2022-10-17T07:46:23.300Z,101509.70
2022-10-17T07:48:52.338Z,101498.40
2022-10-17T07:51:22.412Z,101511.13
2022-10-17T07:53:50.698Z,101508.33
2022-10-17T07:56:19.103Z,101508.99
2022-10-17T07:58:48.506Z,101502.46
2022-10-17T08:01:17.899Z,101513.43
2022-10-17T08:03:49.220Z,101496.91
2022-10-17T08:06:17.928Z,101511.25
2022-10-17T08:08:46.317Z,101508.63
2022-10-17T08:11:15.585Z,101509.21
2022-10-17T08:13:44.059Z,101509.91
2022-10-17T08:16:13.695Z,101515.06
2022-10-17T08:18:42.992Z,101516.19
2022-10-17T08:21:13.504Z,101518.35
2022-10-17T08:23:42.782Z,101509.02
2022-10-17T08:26:13.622Z,101513.04
2022-10-17T08:28:42.044Z,101505.50
2022-10-17T08:31:14.773Z,101504.37
2022-10-17T08:33:43.056Z,101504.44
2022-10-17T08:36:15.176Z,101506.43
2022-10-17T08:38:45.453Z,101511.52
2022-10-17T08:42:10.457Z,101504.02
2022-10-17T08:44:54.270Z,101517.52
2022-10-17T08:47:46.356Z,101514.02
2022-10-17T08:50:31.025Z,101521.04
2022-10-17T08:53:26.062Z,101519.73
2022-10-17T08:55:55.097Z,101519.80
2022-10-17T08:58:29.181Z,101519.90
2022-10-17T09:01:12.698Z,101521.34
2022-10-17T09:03:59.338Z,101523.10
2022-10-17T09:06:34.639Z,101517.89
2022-10-17T09:09:11.855Z,101524.24
2022-10-17T09:12:02.931Z,101513.69
2022-10-17T09:14:57.064Z,101513.52
2022-10-17T09:17:45.284Z,101527.24
2022-10-17T09:20:23.904Z,101522.73
2022-10-17T09:23:17.081Z,101529.15
2022-10-17T09:25:53.554Z,101528.89
2022-10-17T09:28:34.947Z,101523.95
2022-10-17T09:31:14.722Z,101524.56
2022-10-17T09:33:54.370Z,101523.84
2022-10-17T09:36:35.165Z,101525.80
2022-10-17T09:39:17.781Z,101522.38
2022-10-17T09:41:57.186Z,101521.73
2022-10-17T09:44:32.178Z,101525.62
2022-10-17T09:47:21.626Z,101525.25
2022-10-17T09:49:50.795Z,101523.55
2022-10-17T09:52:35.269Z,101523.86
2022-10-17T09:55:22.386Z,101513.60
2022-10-17T09:57:59.750Z,101511.89
2022-10-17T10:00:37.049Z,101514.00
2022-10-17T10:03:13.228Z,101500.20
2022-10-17T10:05:43.424Z,101502.76
2022-10-17T10:08:19.785Z,101501.58
2022-10-17T10:11:03.445Z,101505.61
2022-10-17T10:13:34.078Z,101505.90
2022-10-17T10:16:33.487Z,101504.84
2022-10-17T10:19:03.714Z,101493.92
2022-10-17T10:21:37.203Z,101496.86
2022-10-17T10:24:12.058Z,101485.81
2022-10-17T10:26:50.169Z,101494.58
2022-10-17T10:29:24.314Z,101495.12
2022-10-17T10:31:54.110Z,101492.17
2022-10-17T10:34:29.325Z,101485.19
2022-10-17T10:37:07.418Z,101484.98
2022-10-17T10:39:42.162Z,101475.52
2022-10-17T10:42:52.281Z,101479.61
2022-10-17T10:45:48.664Z,101454.71
2022-10-17T10:48:30.725Z,101470.83
2022-10-17T10:51:17.769Z,101466.69
2022-10-17T11:00:32.697Z,101471.40
2022-10-17T11:03:14.036Z,101466.05
2022-10-17T11:06:14.218Z,101468.20
2022-10-17T11:09:03.105Z,101463.54
2022-10-17T11:11:58.360Z,101472.09
2022-10-17T11:14:51.987Z,101477.02
2022-10-17T11:17:43.553Z,101470.34
2022-10-17T11:20:34.461Z,101480.83
2022-10-17T11:23:53.426Z,101480.13
2022-10-17T11:26:40.374Z,101483.83
2022-10-17T11:29:13.404Z,101483.27
2022-10-17T11:31:50.862Z,101477.95
2022-10-17T11:34:36.340Z,101474.71
2022-10-17T11:37:15.191Z,101473.98
2022-10-17T11:39:52.021Z,101474.75
2022-10-17T11:43:01.805Z,101467.11
2022-10-17T11:45:39.394Z,101467.05
2022-10-17T11:48:20.895Z,101461.92
2022-10-17T11:54:12.378Z,101464.70
2022-10-17T11:57:50.517Z,101459.08
2022-10-17T12:00:53.393Z,101458.38
2022-10-17T12:03:53.648Z,101445.48
2022-10-17T12:06:37.435Z,101452.52
2022-10-17T12:09:38.014Z,101454.39
2022-10-17T12:12:06.834Z,101450.83
2022-10-17T12:14:43.047Z,101447.92
2022-10-17T12:17:39.267Z,101445.25
2022-10-17T12:20:23.787Z,101445.42
2022-10-17T12:23:30.166Z,101444.17
2022-10-17T12:26:04.753Z,101439.64
2022-10-17T12:28:37.757Z,101441.67
2022-10-17T12:31:28.537Z,101439.09
2022-10-17T12:34:04.360Z,101439.14
2022-10-17T12:36:32.866Z,101439.27
2022-10-17T12:39:04.318Z,101432.77
2022-10-17T12:41:38.761Z,101430.19
2022-10-17T12:44:21.814Z,101433.85
2022-10-17T12:47:19.165Z,101422.16
2022-10-17T12:49:51.982Z,101419.71
2022-10-17T12:52:35.296Z,101417.23
2022-10-17T12:55:13.130Z,101418.55
2022-10-17T12:58:03.078Z,101419.69
2022-10-17T13:00:37.661Z,101412.98
2022-10-17T13:03:49.321Z,101413.61
2022-10-17T13:06:31.810Z,101414.89
2022-10-17T13:09:06.158Z,101411.98
2022-10-17T13:11:38.141Z,101405.57
2022-10-17T13:14:41.275Z,101411.38
2022-10-17T13:17:30.816Z,101409.20
2022-10-17T13:19:59.966Z,101406.15
2022-10-17T13:22:32.625Z,101407.31
2022-10-17T13:25:19.426Z,101414.41
2022-10-17T13:28:29.296Z,101410.95
2022-10-17T13:30:58.372Z,101410.67
2022-10-17T13:33:44.861Z,101412.02
2022-10-17T13:36:19.838Z,101407.21
2022-10-17T13:38:54.817Z,101405.97
2022-10-17T13:41:37.464Z,101411.36
2022-10-17T13:44:18.365Z,101412.91
2022-10-17T13:46:47.676Z,101411.02
2022-10-17T13:49:40.827Z,101404.48
2022-10-17T13:52:20.057Z,101412.23
2022-10-17T13:54:51.384Z,101415.64
2022-10-17T13:57:31.976Z,101418.48
2022-10-17T14:00:23.280Z,101418.63
2022-10-17T14:02:51.917Z,101411.25
2022-10-17T14:05:23.577Z,101411.23
2022-10-17T14:08:22.845Z,101405.33
2022-10-17T14:10:52.246Z,101409.38
2022-10-17T14:13:27.619Z,101405.09
2022-10-17T14:16:00.065Z,101399.67
2022-10-17T14:18:36.411Z,101400.84
2022-10-17T14:21:36.794Z,101395.34
2022-10-17T14:24:30.276Z,101400.88
2022-10-17T14:27:00.647Z,101399.51
2022-10-17T14:29:32.139Z,101397.64
2022-10-17T14:32:11.029Z,101400.45
2022-10-17T14:34:41.234Z,101401.84
2022-10-17T14:37:44.105Z,101402.98
2022-10-17T14:40:24.293Z,101406.27
2022-10-17T14:42:56.385Z,101404.86
2022-10-17T14:45:34.098Z,101397.71
2022-10-17T14:48:16.922Z,101406.64
2022-10-17T14:51:16.268Z,101400.00
2022-10-17T14:54:05.084Z,101401.85
2022-10-17T14:56:48.709Z,101400.98
2022-10-17T14:59:48.487Z,101396.75
2022-10-17T15:02:12.218Z,101398.41
2022-10-17T15:04:40.642Z,101398.49
2022-10-17T15:07:15.770Z,101397.09
2022-10-17T15:09:48.479Z,101392.23
2022-10-17T15:12:28.371Z,101392.22
2022-10-17T15:14:56.956Z,101399.91
2022-10-17T15:17:31.681Z,101399.23
2022-10-17T15:20:00.492Z,101397.23
2022-10-17T15:22:29.300Z,101402.18
2022-10-17T15:24:57.750Z,101412.25
2022-10-17T15:27:31.421Z,101416.93
2022-10-17T15:30:00.294Z,101417.48
2022-10-17T15:32:28.630Z,101420.94
2022-10-17T15:34:56.880Z,101418.98
2022-10-17T15:37:26.115Z,101421.56
2022-10-17T15:39:55.522Z,101424.66
2022-10-17T15:42:29.677Z,101429.34
2022-10-17T15:44:59.138Z,101433.55
2022-10-17T15:47:31.351Z,101438.48
2022-10-17T15:50:01.021Z,101443.14
2022-10-17T15:52:29.490Z,101447.60
2022-10-17T15:55:00.868Z,101439.87
2022-10-17T15:57:38.344Z,101441.70
2022-10-17T16:00:22.516Z,101453.04
2022-10-17T16:02:51.382Z,101456.45
2022-10-17T16:05:29.660Z,101455.34
2022-10-17T16:07:58.597Z,101456.02
2022-10-17T16:10:27.143Z,101453.44
2022-10-17T16:12:55.734Z,101452.40
2022-10-17T16:15:28.061Z,101452.45
2022-10-17T16:18:00.572Z,101452.25
2022-10-17T16:20:32.217Z,101447.04
2022-10-17T16:23:02.487Z,101458.56
2022-10-17T16:25:32.534Z,101464.88
2022-10-17T16:28:01.815Z,101460.29
2022-10-17T16:30:32.292Z,101461.63
2022-10-17T16:33:00.686Z,101459.58
2022-10-17T16:35:34.805Z,101464.03
2022-10-17T16:38:08.281Z,101464.81
2022-10-17T16:40:39.052Z,101462.19
2022-10-17T16:43:12.281Z,101462.13
2022-10-17T16:45:41.354Z,101461.44
2022-10-17T16:48:10.030Z,101466.05
2022-10-17T16:50:41.499Z,101464.68
2022-10-17T16:53:09.941Z,101466.98
2022-10-17T16:55:38.379Z,101463.10
2022-10-17T16:58:06.830Z,101466.15
2022-10-17T17:00:35.158Z,101464.92
2022-10-17T17:03:03.910Z,101470.27
2022-10-17T17:05:32.286Z,101472.55
2022-10-17T17:08:01.094Z,101470.52
2022-10-17T17:10:29.342Z,101474.70
2022-10-17T17:12:57.737Z,101471.42
2022-10-17T17:15:26.036Z,101470.36
2022-10-17T17:17:55.699Z,101470.63
2022-10-17T17:20:24.542Z,101473.98
2022-10-17T17:22:52.837Z,101471.92
2022-10-17T17:25:23.116Z,101468.30
2022-10-17T17:27:51.377Z,101469.66
2022-10-17T17:30:19.626Z,101475.40
2022-10-17T17:32:48.018Z,101474.55
2022-10-17T17:35:16.491Z,101477.59
2022-10-17T17:37:44.745Z,101479.09
2022-10-17T17:40:13.002Z,101476.65
2022-10-17T17:42:41.241Z,101473.56
2022-10-17T17:45:10.201Z,101480.84
2022-10-17T17:47:38.507Z,101477.20
2022-10-17T17:50:07.779Z,101475.59
2022-10-17T17:52:36.285Z,101469.98
2022-10-17T17:55:05.542Z,101458.16
2022-10-17T17:57:34.106Z,101477.11
2022-10-17T18:00:04.069Z,101482.42
2022-10-17T18:02:32.776Z,101484.09
2022-10-17T18:05:01.131Z,101477.66
2022-10-17T18:07:30.536Z,101479.43
2022-10-17T18:09:58.820Z,101470.34
2022-10-17T18:12:27.307Z,101477.39
2022-10-17T18:14:55.694Z,101476.32
2022-10-17T18:17:24.219Z,101477.43
2022-10-17T18:19:52.525Z,101479.21
2022-10-17T18:22:21.297Z,101476.29
2022-10-17T18:24:50.301Z,101478.89
2022-10-17T18:27:18.588Z,101476.16
2022-10-17T18:29:47.236Z,101479.09
2022-10-17T18:32:15.970Z,101479.02
2022-10-17T18:34:44.278Z,101481.11
2022-10-17T18:37:12.760Z,101477.67
2022-10-17T18:39:41.251Z,101479.04
2022-10-17T18:42:09.535Z,101475.54
2022-10-17T18:44:38.630Z,101478.38
2022-10-17T18:47:06.900Z,101479.47
2022-10-17T18:49:36.937Z,101475.77
2022-10-17T18:52:05.349Z,101477.77
2022-10-17T18:54:34.827Z,101476.41
2022-10-17T18:57:03.339Z,101473.67
2022-10-17T18:59:31.644Z,101471.08
2022-10-17T19:02:00.019Z,101472.80
2022-10-17T19:04:28.354Z,101474.42
2022-10-17T19:06:56.581Z,101474.21
2022-10-17T19:09:24.852Z,101478.01
2022-10-17T19:11:53.161Z,101478.94
2022-10-17T19:14:21.451Z,101480.91
2022-10-17T19:16:51.176Z,101484.06
2022-10-17T19:19:24.855Z,101483.73
2022-10-17T19:21:53.749Z,101487.15
2022-10-17T19:24:28.014Z,101486.20
2022-10-17T19:26:59.546Z,101486.21
2022-10-17T19:29:32.038Z,101488.80
2022-10-17T19:32:00.983Z,101485.60
2022-10-17T19:34:29.540Z,101485.97
2022-10-17T19:36:58.269Z,101484.52
2022-10-17T19:39:26.797Z,101487.27
2022-10-17T19:41:55.949Z,101489.45
2022-10-17T19:44:24.322Z,101489.29
2022-10-17T19:46:52.609Z,101486.27
2022-10-17T19:49:20.977Z,101480.80
2022-10-17T19:51:49.312Z,101482.61
2022-10-17T19:54:19.038Z,101482.52
2022-10-17T19:56:47.709Z,101480.65
2022-10-17T19:59:17.673Z,101483.14
2022-10-17T20:01:46.468Z,101478.41
2022-10-17T20:04:14.952Z,101480.54
2022-10-17T20:06:43.366Z,101481.39
2022-10-17T20:09:16.559Z,101474.54
2022-10-17T20:11:46.325Z,101469.27
2022-10-17T20:14:14.614Z,101464.02
2022-10-17T20:16:44.941Z,101467.14
2022-10-17T20:19:13.921Z,101468.70
2022-10-17T20:21:43.925Z,101469.27
2022-10-17T20:24:16.905Z,101473.13
2022-10-17T20:26:46.321Z,101473.33
2022-10-17T20:29:18.909Z,101469.77
2022-10-17T20:31:48.320Z,101472.98
2022-10-17T20:34:18.529Z,101470.09
2022-10-17T20:36:47.814Z,101470.96
2022-10-17T20:39:19.186Z,101469.17
2022-10-17T20:41:47.936Z,101471.19
2022-10-17T20:44:16.466Z,101469.25
2022-10-17T20:47:00.699Z,101473.35
2022-10-17T20:49:31.224Z,101472.83
2022-10-17T20:52:01.187Z,101472.48
2022-10-17T20:54:29.874Z,101471.17
2022-10-17T20:57:01.128Z,101469.49
2022-10-17T20:59:35.388Z,101470.35
2022-10-17T21:02:05.809Z,101467.23
2022-10-17T21:04:45.793Z,101468.55
2022-10-17T21:07:14.779Z,101470.31
2022-10-17T21:09:43.175Z,101469.17
2022-10-17T21:12:13.181Z,101471.52
2022-10-17T21:14:46.974Z,101469.07
2022-10-17T21:17:15.204Z,101466.17
2022-10-17T21:19:43.625Z,101463.83
2022-10-17T21:22:11.920Z,101457.27
2022-10-17T21:24:40.480Z,101460.11
2022-10-17T21:27:19.841Z,101460.55
2022-10-17T21:29:48.273Z,101460.52
2022-10-17T21:32:31.841Z,101459.85
2022-10-17T21:35:05.492Z,101459.54
2022-10-17T21:37:33.774Z,101467.88
2022-10-17T21:40:02.074Z,101467.51
2022-10-17T21:42:30.627Z,101467.60
2022-10-17T21:44:59.242Z,101468.84
2022-10-17T21:47:27.740Z,101461.98
2022-10-17T21:49:56.323Z,101463.35
2022-10-17T21:52:24.648Z,101460.05
2022-10-17T21:54:53.045Z,101459.66
2022-10-17T21:57:21.355Z,101460.96
2022-10-17T21:59:49.593Z,101456.31
2022-10-17T22:02:19.120Z,101465.88
2022-10-17T22:04:47.428Z,101464.23
2022-10-17T22:07:15.764Z,101459.88
2022-10-17T22:09:44.047Z,101447.96
2022-10-17T22:12:12.428Z,101455.70
2022-10-17T22:14:40.705Z,101452.90
2022-10-17T22:17:08.959Z,101452.95
2022-10-17T22:19:37.255Z,101456.23
2022-10-17T22:22:05.542Z,101454.47
2022-10-17T22:24:33.800Z,101454.17
2022-10-17T22:27:02.272Z,101452.52
2022-10-17T22:29:30.663Z,101450.36
2022-10-17T22:32:00.785Z,101446.46
2022-10-17T22:34:29.102Z,101444.99
2022-10-17T22:36:57.333Z,101446.40
2022-10-17T22:39:25.716Z,101455.55
2022-10-17T22:41:54.001Z,101455.34
2022-10-17T22:44:22.324Z,101455.02
2022-10-17T22:46:50.746Z,101445.85
2022-10-17T22:49:19.127Z,101451.34
2022-10-17T22:51:47.505Z,101447.10
2022-10-17T22:54:16.389Z,101444.21
2022-10-17T22:56:44.772Z,101444.36
2022-10-17T22:59:13.152Z,101442.30
2022-10-17T23:01:41.551Z,101441.48
2022-10-17T23:04:09.854Z,101438.36
2022-10-17T23:06:38.201Z,101432.94
2022-10-17T23:09:06.561Z,101430.96
2022-10-17T23:11:34.841Z,101431.28
2022-10-17T23:14:03.077Z,101433.51
2022-10-17T23:16:31.326Z,101427.58
2022-10-17T23:18:59.590Z,101425.17
2022-10-17T23:21:27.922Z,101420.80
2022-10-17T23:23:56.217Z,101418.09
2022-10-17T23:26:24.821Z,101417.02
2022-10-17T23:28:56.222Z,101416.93
2022-10-17T23:31:24.741Z,101413.07
2022-10-17T23:33:53.138Z,101414.98
2022-10-17T23:36:21.915Z,101413.51
2022-10-17T23:38:52.710Z,101408.85
2022-10-17T23:41:23.394Z,101408.97
2022-10-17T23:43:51.767Z,101410.31
2022-10-17T23:46:20.122Z,101399.58
2022-10-17T23:48:48.504Z,101404.52
2022-10-17T23:51:17.434Z,101402.62
2022-10-17T23:53:45.711Z,101406.05
2022-10-17T23:56:14.133Z,101402.52
2022-10-17T23:58:42.509Z,101400.70
